Stock Island, Florida
Current Conditions -  °F | °C
As of 5:53 PM on Wednesday 22 Oct 2014 (Local Time) from KEYW Reporting Station
Light Rain Light Rain  
Wind Chill: 74°   Ceiling: 8000
Heat Index: 74°   Visibility: 10mi
Dew Point: 73°   Wind: 9mph
Humidity: 97%   Direction: 90°E
Pressure: 29.91"   Gusts: NA
Location:  24.5554°N, 81.8052°W
Report Text: KEYW 222153Z 09008KT 10SM -RA SCT024 SCT050 OVC080 23/23 A2991 RMK AO2 SLP127 P0005 T02330228
Loading
Personal Weather Stations






























Interactive Weather Map
Tropical Storm Tracking
New forecast layout! Learn more

10-Day Weather Forecast

Advertisements
Track Severe Weather on mobile